Time;durP1;ratioP1;P1;durP2;ratioP2;P2;SDS_P1;SDS_P2;PMS_P1;PMS_P2;Temp;Humidity;BMP_temperature;BMP_pressure;BME280_temperature;BME280_humidity;BME280_pressure;Samples;Min_cycle;Max_cycle;Signal;HPM_P1;HPM_P2
2023/02/03 00:01:55;;;;;;;3.97;1.45;;;10.10;98.70;;;;;;6219148;23;20032;-86
2023/02/03 00:04:21;;;;;;;4.65;1.70;;;10.10;99.30;;;;;;6218921;23;20001;-86
2023/02/03 00:06:47;;;;;;;3.83;1.52;;;10.00;99.40;;;;;;6219829;23;20036;-87
2023/02/03 00:09:13;;;;;;;3.75;1.58;;;10.00;99.20;;;;;;6218774;23;20023;-88
2023/02/03 00:11:39;;;;;;;3.38;1.20;;;10.00;99.30;;;;;;6219058;23;20000;-87
2023/02/03 00:14:06;;;;;;;2.45;1.05;;;10.00;99.50;;;;;;6218547;23;20001;-86
2023/02/03 00:16:33;;;;;;;3.00;0.85;;;10.00;99.50;;;;;;6218397;23;20005;-87
2023/02/03 00:18:58;;;;;;;1.42;0.68;;;10.00;99.50;;;;;;6218645;23;20009;-87
2023/02/03 00:21:24;;;;;;;2.38;1.40;;;10.00;99.50;;;;;;6219425;23;20328;-86
2023/02/03 00:23:49;;;;;;;1.80;1.00;;;9.90;99.20;;;;;;6219754;23;20449;-87
2023/02/03 00:26:16;;;;;;;1.88;1.00;;;9.90;99.50;;;;;;6219060;23;20043;-89
2023/02/03 00:28:42;;;;;;;2.58;1.10;;;9.90;99.50;;;;;;6220468;23;20419;-90
2023/02/03 00:31:16;;;;;;;2.88;0.80;;;9.90;99.40;;;;;;6219793;23;20021;-86
2023/02/03 00:33:41;;;;;;;1.52;1.10;;;9.90;99.80;;;;;;6220051;23;20005;-90
2023/02/03 00:36:07;;;;;;;1.65;0.70;;;9.90;99.20;;;;;;6219765;23;20062;-89
2023/02/03 00:38:33;;;;;;;1.58;0.75;;;9.90;99.60;;;;;;6220147;23;20015;-89
2023/02/03 00:40:59;;;;;;;3.05;0.90;;;9.90;99.50;;;;;;6219904;23;20008;-89
2023/02/03 00:43:25;;;;;;;1.48;0.75;;;9.90;99.40;;;;;;6219473;23;20095;-86
2023/02/03 00:45:50;;;;;;;1.23;0.60;;;9.90;99.60;;;;;;6218961;23;20008;-84
2023/02/03 00:48:16;;;;;;;1.10;0.60;;;10.00;99.40;;;;;;6220207;23;20039;-83
2023/02/03 00:50:42;;;;;;;2.03;0.75;;;10.00;99.60;;;;;;6219488;23;20389;-86
2023/02/03 00:53:07;;;;;;;2.08;0.80;;;10.00;99.80;;;;;;6219912;23;20006;-83
2023/02/03 00:55:33;;;;;;;1.52;0.90;;;10.00;99.50;;;;;;6218936;23;20004;-84
2023/02/03 00:57:59;;;;;;;2.00;0.90;;;9.90;99.60;;;;;;6219273;23;20016;-83
2023/02/03 01:00:24;;;;;;;2.25;0.80;;;9.90;99.70;;;;;;6218871;23;20123;-83
2023/02/03 01:02:50;;;;;;;1.23;0.70;;;10.00;99.80;;;;;;6219258;23;20568;-84
2023/02/03 01:05:16;;;;;;;2.40;0.80;;;9.90;99.70;;;;;;6218745;23;20015;-83
2023/02/03 01:07:41;;;;;;;3.30;0.80;;;9.90;99.80;;;;;;6220450;23;20457;-83
2023/02/03 01:10:07;;;;;;;2.05;0.80;;;9.90;99.90;;;;;;6218545;23;20037;-83
2023/02/03 01:12:33;;;;;;;2.03;0.50;;;9.90;99.90;;;;;;6218866;23;20008;-84
2023/02/03 01:14:59;;;;;;;0.95;0.68;;;9.80;99.90;;;;;;6219018;23;20001;-83
2023/02/03 01:17:24;;;;;;;1.33;0.70;;;10.00;99.90;;;;;;6220431;23;20028;-82
2023/02/03 01:19:51;;;;;;;1.70;0.60;;;9.90;99.90;;;;;;6219154;23;20039;-82
2023/02/03 01:22:16;;;;;;;0.70;0.35;;;10.00;99.90;;;;;;6220653;23;20005;-83
2023/02/03 01:24:42;;;;;;;1.15;0.65;;;10.00;99.90;;;;;;6218555;23;20032;-83
2023/02/03 01:27:08;;;;;;;1.65;0.60;;;10.00;99.80;;;;;;6220034;23;20056;-83
2023/02/03 01:29:34;;;;;;;0.90;0.50;;;10.00;99.80;;;;;;6219330;23;20001;-83
2023/02/03 01:31:59;;;;;;;0.90;0.43;;;10.00;98.40;;;;;;6219985;23;20043;-83
2023/02/03 01:34:25;;;;;;;1.30;0.65;;;10.00;98.60;;;;;;6218638;23;20004;-83
2023/02/03 01:36:51;;;;;;;1.17;0.57;;;10.00;98.40;;;;;;6220277;23;20039;-86
2023/02/03 01:39:17;;;;;;;0.50;0.40;;;10.10;98.40;;;;;;6220688;23;20096;-88
2023/02/03 01:41:43;;;;;;;1.48;0.50;;;10.10;98.90;;;;;;6219207;23;20717;-87
2023/02/03 01:44:34;;;;;;;1.42;0.40;;;10.10;98.20;;;;;;6219279;23;20342;-87
2023/02/03 01:47:00;;;;;;;1.42;0.40;;;10.10;99.40;;;;;;6219204;23;20004;-88
2023/02/03 01:49:34;;;;;;;1.77;0.45;;;10.10;98.70;;;;;;6219432;23;20012;-88
2023/02/03 01:52:00;;;;;;;1.15;0.50;;;10.20;98.60;;;;;;6221492;23;20001;-90
2023/02/03 01:54:30;;;;;;;0.82;0.40;;;10.10;98.30;;;;;;6220448;23;20090;-91
2023/02/03 01:57:02;;;;;;;1.67;0.50;;;10.00;98.60;;;;;;6219939;23;20031;-90
2023/02/03 01:59:30;;;;;;;1.00;0.60;;;10.00;99.00;;;;;;6219886;23;20005;-87
2023/02/03 02:01:57;;;;;;;0.75;0.45;;;10.00;98.90;;;;;;6219704;23;21142;-87
2023/02/03 02:04:28;;;;;;;1.10;0.40;;;10.00;98.80;;;;;;6219512;23;20004;-87
2023/02/03 02:06:56;;;;;;;1.63;0.70;;;10.00;98.80;;;;;;6218363;23;20016;-86
2023/02/03 02:09:24;;;;;;;1.52;0.50;;;9.90;99.00;;;;;;6219871;23;20005;-87
2023/02/03 02:11:49;;;;;;;0.70;0.30;;;10.00;99.40;;;;;;6218714;23;20501;-88
2023/02/03 02:14:15;;;;;;;0.57;0.40;;;10.00;99.50;;;;;;6219176;23;20000;-88
2023/02/03 02:16:57;;;;;;;0.77;0.45;;;10.10;99.20;;;;;;6219069;23;20012;-87
2023/02/03 02:19:50;;;;;;;0.45;0.30;;;10.00;99.40;;;;;;6219594;23;20004;-88
2023/02/03 02:22:32;;;;;;;0.68;0.40;;;10.10;99.60;;;;;;6220780;23;20009;-87
2023/02/03 02:25:26;;;;;;;1.05;0.55;;;10.10;99.50;;;;;;6220590;23;20036;-88
2023/02/03 02:28:03;;;;;;;0.88;0.45;;;10.10;99.70;;;;;;6221773;23;20008;-87
2023/02/03 02:31:04;;;;;;;0.82;0.40;;;10.10;99.20;;;;;;6220224;23;20511;-87
2023/02/03 02:33:47;;;;;;;0.50;0.30;;;10.10;99.80;;;;;;6207091;23;20452;-87
2023/02/03 02:36:32;;;;;;;0.65;0.35;;;10.10;99.90;;;;;;6220439;23;20008;-88
2023/02/03 02:39:24;;;;;;;0.98;0.60;;;10.10;99.60;;;;;;6222068;23;20031;-87
2023/02/03 02:42:01;;;;;;;1.00;0.38;;;10.10;99.80;;;;;;6220216;23;20004;-88
2023/02/03 02:44:34;;;;;;;0.90;0.50;;;10.10;99.50;;;;;;6220381;23;20104;-86
2023/02/03 02:47:10;;;;;;;2.95;0.52;;;10.00;99.50;;;;;;6221321;23;20450;-83
2023/02/03 02:49:45;;;;;;;0.40;0.40;;;10.10;99.90;;;;;;6221239;23;20004;-83
2023/02/03 02:52:14;;;;;;;0.30;0.30;;;10.10;99.90;;;;;;6220121;23;20004;-83
2023/02/03 02:54:43;;;;;;;1.00;0.45;;;10.10;99.60;;;;;;6219631;23;20012;-82
2023/02/03 02:57:11;;;;;;;1.00;0.52;;;10.10;99.70;;;;;;6220941;23;20035;-83
2023/02/03 02:59:37;;;;;;;1.13;0.50;;;10.10;99.90;;;;;;6221054;23;20004;-83
2023/02/03 03:02:03;;;;;;;0.85;0.55;;;10.10;99.90;;;;;;6219840;23;20050;-82
2023/02/03 03:04:32;;;;;;;1.05;0.32;;;10.10;99.90;;;;;;6219818;23;20011;-82
2023/02/03 03:07:20;;;;;;;1.05;0.43;;;10.10;99.90;;;;;;6219551;23;20009;-82
2023/02/03 03:09:50;;;;;;;1.85;0.40;;;10.20;99.90;;;;;;6219564;23;20011;-84
2023/02/03 03:12:21;;;;;;;0.85;0.45;;;10.10;99.90;;;;;;6219381;23;20005;-84
2023/02/03 03:14:58;;;;;;;0.80;0.50;;;10.10;99.70;;;;;;6221011;23;19997;-84
2023/02/03 03:17:30;;;;;;;1.05;0.40;;;10.00;99.70;;;;;;6219639;23;20030;-84
2023/02/03 03:20:01;;;;;;;0.57;0.40;;;10.00;99.80;;;;;;6221130;23;20036;-84
2023/02/03 03:22:33;;;;;;;1.55;0.50;;;10.00;99.80;;;;;;6219394;23;20005;-84
2023/02/03 03:25:15;;;;;;;1.33;0.40;;;9.90;99.90;;;;;;6221374;23;19997;-86
2023/02/03 03:27:48;;;;;;;2.03;0.70;;;9.90;99.90;;;;;;6219700;23;20008;-86
2023/02/03 03:30:19;;;;;;;1.77;0.60;;;9.90;99.90;;;;;;6219257;23;20493;-85
2023/02/03 03:32:45;;;;;;;0.95;0.65;;;9.90;99.90;;;;;;6221129;23;20004;-86
2023/02/03 03:35:11;;;;;;;1.45;0.50;;;9.90;99.90;;;;;;6221149;23;20004;-86
2023/02/03 03:37:54;;;;;;;1.52;0.50;;;9.90;99.90;;;;;;6219412;23;20392;-86
2023/02/03 03:40:34;;;;;;;0.68;0.40;;;9.90;99.90;;;;;;6219509;23;20000;-86
2023/02/03 03:43:06;;;;;;;1.55;0.50;;;9.80;99.90;;;;;;6219253;23;20001;-86
2023/02/03 03:45:59;;;;;;;0.95;0.50;;;9.80;99.90;;;;;;6221520;23;20028;-82
2023/02/03 03:48:54;;;;;;;1.20;0.60;;;9.80;99.90;;;;;;6219453;23;20007;-82
2023/02/03 03:51:20;;;;;;;1.55;0.60;;;9.80;99.90;;;;;;6212486;23;20422;-82
2023/02/03 03:53:50;;;;;;;1.05;0.43;;;9.90;99.90;;;;;;6221087;23;20023;-86
2023/02/03 03:56:24;;;;;;;1.42;0.50;;;9.90;99.90;;;;;;6219424;23;20055;-86
2023/02/03 03:58:52;;;;;;;1.00;0.40;;;9.90;99.90;;;;;;6219396;23;20012;-86
2023/02/03 04:01:21;;;;;;;1.33;0.40;;;10.00;99.90;;;;;;6219542;23;20012;-86
2023/02/03 04:03:57;;;;;;;1.48;0.57;;;9.90;99.90;;;;;;6219475;23;20031;-86
2023/02/03 04:06:23;;;;;;;1.23;0.65;;;9.90;99.90;;;;;;6219275;23;20005;-86
2023/02/03 04:08:48;;;;;;;0.50;0.32;;;9.90;99.90;;;;;;6219466;23;20008;-83
2023/02/03 04:11:59;;;;;;;1.40;0.57;;;9.90;99.90;;;;;;6218912;23;20418;-85
2023/02/03 04:13:59;;;;;;;1.00;0.43;;;9.90;99.90;;;;;;6220544;23;20004;-83
2023/02/03 04:16:25;;;;;;;0.60;0.40;;;9.90;99.90;;;;;;6220944;23;20011;-83
2023/02/03 04:18:51;;;;;;;0.93;0.50;;;10.00;99.90;;;;;;6219011;23;20015;-85
2023/02/03 04:21:16;;;;;;;1.02;0.47;;;10.00;99.90;;;;;;6220760;23;20004;-83
2023/02/03 04:23:42;;;;;;;1.65;0.50;;;9.90;99.90;;;;;;6221298;23;20011;-88
2023/02/03 04:26:07;;;;;;;0.85;0.38;;;9.90;99.90;;;;;;6219701;23;20005;-86
2023/02/03 04:28:33;;;;;;;1.85;0.60;;;9.90;99.90;;;;;;6220016;23;20004;-89
2023/02/03 04:31:03;;;;;;;1.90;0.47;;;9.90;99.90;;;;;;6219367;23;20044;-87
2023/02/03 04:33:28;;;;;;;0.70;0.35;;;10.00;99.90;;;;;;6220697;23;19997;-87
2023/02/03 04:35:54;;;;;;;0.85;0.40;;;10.00;99.90;;;;;;6219904;23;20405;-87
2023/02/03 04:38:19;;;;;;;1.67;0.57;;;10.00;99.90;;;;;;6221121;23;20544;-87
2023/02/03 04:40:45;;;;;;;1.17;0.43;;;10.00;99.90;;;;;;6218599;23;20005;-83
2023/02/03 04:43:11;;;;;;;1.95;0.60;;;10.00;99.90;;;;;;6218836;23;20011;-80
2023/02/03 04:45:37;;;;;;;1.63;0.40;;;10.00;99.90;;;;;;6218778;23;20008;-81
2023/02/03 04:48:05;;;;;;;0.98;0.40;;;9.90;99.90;;;;;;6220187;23;20000;-79
2023/02/03 04:50:31;;;;;;;0.63;0.47;;;10.00;99.90;;;;;;6220350;23;19997;-80
2023/02/03 04:52:59;;;;;;;1.20;0.32;;;9.90;99.90;;;;;;6220219;23;20007;-80
2023/02/03 04:55:26;;;;;;;0.75;0.40;;;9.90;99.90;;;;;;6219058;23;20005;-81
2023/02/03 04:57:59;;;;;;;0.50;0.30;;;9.90;99.90;;;;;;6220236;23;20390;-80
2023/02/03 05:00:25;;;;;;;0.55;0.30;;;10.00;99.90;;;;;;6220511;23;20076;-82
2023/02/03 05:02:51;;;;;;;0.98;0.38;;;10.00;99.90;;;;;;6220441;23;20007;-82
2023/02/03 05:05:17;;;;;;;0.63;0.40;;;10.00;99.90;;;;;;6220060;23;20004;-80
2023/02/03 05:07:42;;;;;;;1.02;0.40;;;10.00;99.90;;;;;;6219080;23;20005;-86
2023/02/03 05:10:09;;;;;;;1.50;0.70;;;10.00;99.90;;;;;;6219388;23;20000;-88
2023/02/03 05:12:34;;;;;;;0.60;0.40;;;10.00;99.90;;;;;;6219289;23;20345;-88
2023/02/03 05:15:00;;;;;;;1.85;0.40;;;10.10;99.90;;;;;;6219143;23;20036;-84
2023/02/03 05:17:26;;;;;;;0.55;0.32;;;10.10;99.90;;;;;;6219454;23;20000;-87
2023/02/03 05:19:51;;;;;;;0.75;0.45;;;10.10;99.90;;;;;;6219095;23;20009;-85
2023/02/03 05:22:17;;;;;;;0.30;0.30;;;10.10;99.90;;;;;;6219258;23;20126;-83
2023/02/03 05:24:42;;;;;;;1.52;0.32;;;10.00;99.90;;;;;;6218725;23;20005;-85
2023/02/03 05:27:08;;;;;;;0.45;0.30;;;10.00;99.90;;;;;;6219054;23;20071;-86
2023/02/03 05:29:34;;;;;;;1.23;0.40;;;10.00;99.90;;;;;;6219220;23;20108;-89
2023/02/03 05:32:00;;;;;;;1.08;0.32;;;10.00;99.90;;;;;;6218442;23;20095;-85
2023/02/03 05:34:25;;;;;;;1.95;0.50;;;10.00;99.90;;;;;;6219414;23;20007;-88
2023/02/03 05:36:51;;;;;;;1.15;0.30;;;10.00;99.90;;;;;;6220449;23;20011;-83
2023/02/03 05:39:16;;;;;;;0.47;0.40;;;10.00;99.90;;;;;;6218912;23;20311;-83
2023/02/03 05:41:51;;;;;;;0.80;0.35;;;9.90;99.90;;;;;;6219874;23;20032;-82
2023/02/03 05:44:22;;;;;;;0.60;0.30;;;9.90;99.90;;;;;;6218299;23;20458;-79
2023/02/03 05:46:48;;;;;;;0.52;0.25;;;9.90;99.90;;;;;;6219659;23;20055;-80
2023/02/03 05:49:14;;;;;;;1.33;0.70;;;9.90;99.90;;;;;;6218395;23;20073;-81
2023/02/03 05:51:40;;;;;;;1.02;0.40;;;9.90;99.90;;;;;;6220411;23;20344;-79
2023/02/03 05:54:06;;;;;;;0.40;0.30;;;10.00;99.90;;;;;;6219960;23;20001;-79
2023/02/03 05:56:32;;;;;;;0.65;0.30;;;9.90;99.90;;;;;;6220040;23;20005;-82
2023/02/03 05:58:57;;;;;;;1.30;0.32;;;9.90;99.90;;;;;;6221761;23;20033;-82
2023/02/03 06:01:23;;;;;;;0.47;0.20;;;10.00;99.90;;;;;;6220152;23;20104;-81
2023/02/03 06:03:49;;;;;;;1.15;0.40;;;10.00;99.90;;;;;;6220209;23;20005;-81
2023/02/03 06:06:15;;;;;;;1.27;0.40;;;10.00;99.90;;;;;;6222040;23;20016;-81
2023/02/03 06:08:41;;;;;;;0.85;0.47;;;10.10;99.90;;;;;;6221902;23;19997;-82
2023/02/03 06:11:07;;;;;;;1.38;0.52;;;10.10;99.90;;;;;;6220404;23;20060;-82
2023/02/03 06:13:33;;;;;;;0.52;0.30;;;10.10;99.90;;;;;;6221752;23;19997;-80
2023/02/03 06:15:58;;;;;;;0.90;0.40;;;10.10;99.90;;;;;;6221790;23;20004;-79
2023/02/03 06:18:24;;;;;;;1.00;0.30;;;10.10;99.90;;;;;;6221551;23;20036;-79
2023/02/03 06:20:50;;;;;;;0.75;0.40;;;10.10;99.90;;;;;;6220184;23;20070;-80
2023/02/03 06:23:18;;;;;;;0.95;0.35;;;10.00;99.90;;;;;;6220413;23;20008;-80
2023/02/03 06:25:48;;;;;;;0.60;0.40;;;10.00;99.90;;;;;;6219748;23;20434;-79
2023/02/03 06:28:14;;;;;;;0.95;0.32;;;9.90;99.90;;;;;;6221726;23;20003;-80
2023/02/03 06:30:40;;;;;;;1.40;0.50;;;9.90;99.90;;;;;;6219800;23;20017;-80
2023/02/03 06:33:05;;;;;;;0.93;0.50;;;9.90;99.90;;;;;;6219495;23;20315;-80
2023/02/03 06:35:31;;;;;;;0.90;0.40;;;9.90;99.90;;;;;;6221829;23;20430;-80
2023/02/03 06:37:57;;;;;;;0.52;0.32;;;9.90;99.90;;;;;;6221055;23;20004;-80
2023/02/03 06:40:22;;;;;;;1.48;0.40;;;10.00;99.90;;;;;;6219569;23;20008;-80
2023/02/03 06:42:49;;;;;;;1.50;0.43;;;10.00;99.90;;;;;;6221142;23;20199;-80
2023/02/03 06:45:15;;;;;;;0.65;0.30;;;10.00;99.90;;;;;;6219915;23;20012;-83
2023/02/03 06:47:42;;;;;;;1.02;0.45;;;10.10;99.90;;;;;;6219879;23;19996;-83
2023/02/03 06:50:10;;;;;;;1.88;0.40;;;10.10;99.90;;;;;;6221297;23;20329;-83
2023/02/03 06:52:36;;;;;;;3.17;0.45;;;10.00;99.90;;;;;;6221241;23;20000;-83
2023/02/03 06:55:03;;;;;;;1.40;0.50;;;10.00;99.90;;;;;;6219533;23;20058;-83
2023/02/03 06:57:28;;;;;;;0.75;0.50;;;10.00;99.90;;;;;;6219365;23;20008;-83
2023/02/03 06:59:54;;;;;;;1.40;0.40;;;10.00;99.90;;;;;;6218643;23;20031;-84
2023/02/03 07:02:19;;;;;;;1.58;0.60;;;10.00;99.90;;;;;;6220819;23;20434;-84
2023/02/03 07:04:45;;;;;;;1.05;0.50;;;9.90;99.90;;;;;;6220759;23;20032;-84
2023/02/03 07:07:12;;;;;;;1.65;0.65;;;9.90;99.90;;;;;;6220773;23;20000;-84
2023/02/03 07:09:41;;;;;;;0.95;0.60;;;10.00;99.90;;;;;;6219772;23;20131;-84
2023/02/03 07:12:07;;;;;;;1.30;0.60;;;10.00;99.90;;;;;;6218766;23;20036;-83
2023/02/03 07:14:34;;;;;;;1.23;0.40;;;10.10;99.90;;;;;;6218972;23;20059;-83
2023/02/03 07:17:01;;;;;;;0.93;0.40;;;10.10;99.90;;;;;;6219331;23;20036;-87
2023/02/03 07:19:27;;;;;;;0.93;0.52;;;10.00;99.90;;;;;;6218629;23;20013;-86
2023/02/03 07:21:53;;;;;;;1.13;0.40;;;10.00;99.90;;;;;;6219076;23;20498;-84
2023/02/03 07:24:19;;;;;;;1.35;0.60;;;10.00;99.90;;;;;;6220986;23;20075;-81
2023/02/03 07:26:44;;;;;;;0.70;0.40;;;9.90;99.90;;;;;;6220894;23;20457;-83
2023/02/03 07:29:10;;;;;;;2.00;0.65;;;10.00;99.90;;;;;;6219053;23;20005;-83
2023/02/03 07:31:37;;;;;;;0.93;0.63;;;10.00;99.90;;;;;;6219040;23;20385;-83
2023/02/03 07:34:03;;;;;;;1.05;0.47;;;10.00;99.90;;;;;;6218963;23;20001;-83
2023/02/03 07:36:29;;;;;;;1.23;0.60;;;10.00;99.90;;;;;;6220925;23;20054;-82
2023/02/03 07:38:58;;;;;;;3.45;0.80;;;10.00;99.90;;;;;;6219470;23;20010;-87
2023/02/03 07:41:24;;;;;;;2.53;0.68;;;10.00;99.90;;;;;;6220632;23;20010;-83
2023/02/03 07:43:49;;;;;;;0.85;0.60;;;10.00;99.90;;;;;;6219250;23;20088;-90
2023/02/03 07:46:16;;;;;;;1.52;0.75;;;10.00;99.90;;;;;;6218404;23;20099;-88
2023/02/03 07:48:41;;;;;;;1.60;0.77;;;10.00;99.90;;;;;;6219739;23;20008;-89
2023/02/03 07:51:07;;;;;;;1.90;0.70;;;10.00;99.90;;;;;;6219857;23;20005;-90
2023/02/03 07:53:32;;;;;;;2.65;0.93;;;10.00;99.90;;;;;;6219253;23;20008;-90
2023/02/03 07:56:02;;;;;;;1.50;0.80;;;9.90;99.90;;;;;;6220200;23;20342;-88
2023/02/03 07:58:29;;;;;;;1.15;0.70;;;9.90;99.90;;;;;;6219117;23;20009;-88
2023/02/03 08:00:55;;;;;;;1.23;0.70;;;9.90;99.90;;;;;;6218514;23;20005;-87
2023/02/03 08:03:21;;;;;;;2.13;0.60;;;9.90;99.90;;;;;;6218037;23;20009;-86
2023/02/03 08:05:47;;;;;;;1.42;0.55;;;10.00;99.90;;;;;;6218498;23;20064;-85
2023/02/03 08:08:13;;;;;;;1.98;0.60;;;10.00;99.90;;;;;;6219904;23;20087;-90
2023/02/03 08:10:38;;;;;;;2.30;0.75;;;10.10;99.90;;;;;;6221186;23;20001;-90
2023/02/03 08:13:04;;;;;;;2.92;1.08;;;10.10;99.90;;;;;;6220147;23;20445;-93
2023/02/03 08:15:30;;;;;;;3.10;0.82;;;10.00;99.90;;;;;;6220446;23;20004;-92
2023/02/03 08:17:56;;;;;;;2.50;0.65;;;9.90;99.90;;;;;;6218532;23;20012;-85
2023/02/03 08:20:21;;;;;;;1.63;0.93;;;9.90;99.90;;;;;;6218266;23;20047;-86
2023/02/03 08:22:47;;;;;;;1.90;1.15;;;10.00;99.90;;;;;;6214887;23;20015;-86
2023/02/03 08:25:13;;;;;;;0.70;0.50;;;10.00;99.90;;;;;;6217913;23;20005;-88
2023/02/03 08:27:39;;;;;;;1.58;0.80;;;10.00;99.90;;;;;;6218608;23;20450;-87
2023/02/03 08:30:08;;;;;;;1.15;0.70;;;10.10;99.90;;;;;;6219082;23;20052;-88
2023/02/03 08:32:34;;;;;;;1.52;0.65;;;10.00;99.90;;;;;;6219396;23;20011;-86
2023/02/03 08:35:00;;;;;;;3.15;0.90;;;10.00;99.90;;;;;;6218012;23;20032;-87
2023/02/03 08:37:27;;;;;;;1.75;0.75;;;10.00;99.90;;;;;;6217558;23;20005;-88
2023/02/03 08:39:53;;;;;;;1.15;0.70;;;10.10;99.90;;;;;;6216885;23;20005;-72
2023/02/03 08:42:18;;;;;;;2.72;0.80;;;10.20;99.90;;;;;;6219533;23;20008;-68
2023/02/03 08:44:44;;;;;;;1.33;0.70;;;10.30;99.90;;;;;;6220058;23;20044;-67
2023/02/03 08:47:11;;;;;;;2.35;0.70;;;10.30;99.90;;;;;;6218250;23;20334;-69
2023/02/03 08:49:38;;;;;;;1.00;0.70;;;10.40;99.90;;;;;;6218303;23;20001;-69
2023/02/03 08:52:05;;;;;;;1.15;0.75;;;10.30;99.90;;;;;;6217526;23;20516;-67
2023/02/03 08:54:31;;;;;;;1.10;0.63;;;10.30;99.90;;;;;;6218777;23;20370;-69
2023/02/03 08:56:58;;;;;;;2.83;0.90;;;10.40;99.90;;;;;;6218891;23;20000;-69
2023/02/03 08:59:23;;;;;;;2.63;1.00;;;10.30;99.90;;;;;;6218006;23;20039;-70
2023/02/03 09:01:50;;;;;;;3.10;0.70;;;10.30;99.90;;;;;;6219478;23;20442;-70
2023/02/03 09:04:18;;;;;;;2.15;0.80;;;10.20;99.90;;;;;;6219369;23;20000;-70
2023/02/03 09:06:46;;;;;;;2.22;0.98;;;10.20;99.90;;;;;;6219578;23;20008;-67
2023/02/03 09:09:13;;;;;;;2.67;1.20;;;10.30;99.90;;;;;;6219567;23;20329;-68
2023/02/03 09:11:40;;;;;;;2.30;0.98;;;10.20;99.90;;;;;;6218266;23;20001;-67
2023/02/03 09:14:06;;;;;;;3.40;1.20;;;10.20;99.90;;;;;;6217574;23;20381;-68
2023/02/03 09:16:31;;;;;;;3.63;1.17;;;10.10;99.90;;;;;;6217199;23;20016;-69
2023/02/03 09:18:57;;;;;;;2.28;0.90;;;10.10;99.90;;;;;;6219027;23;20007;-66
2023/02/03 09:21:23;;;;;;;2.80;1.35;;;10.20;99.90;;;;;;6218198;23;20315;-69
2023/02/03 09:23:49;;;;;;;3.50;1.45;;;10.20;99.90;;;;;;6219131;23;20023;-66
2023/02/03 09:26:15;;;;;;;2.80;1.10;;;10.20;99.90;;;;;;6216420;23;20073;-69
2023/02/03 09:28:41;;;;;;;1.60;1.10;;;10.20;99.90;;;;;;6214300;23;20005;-69
2023/02/03 09:31:12;;;;;;;2.67;1.35;;;10.30;99.90;;;;;;6216715;23;20016;-67
2023/02/03 09:33:38;;;;;;;3.13;1.55;;;10.30;99.90;;;;;;6218188;23;20004;-67
2023/02/03 09:36:06;;;;;;;2.63;1.27;;;10.40;99.90;;;;;;6221286;23;20005;-68
2023/02/03 09:38:34;;;;;;;2.13;1.13;;;10.40;99.90;;;;;;6220758;23;20008;-67
2023/02/03 09:41:21;;;;;;;1.58;1.02;;;10.40;99.90;;;;;;6219953;23;20434;-68
2023/02/03 09:44:02;;;;;;;2.70;1.40;;;10.40;99.90;;;;;;6221097;23;20009;-67
2023/02/03 09:46:32;;;;;;;3.72;1.33;;;10.40;99.90;;;;;;6219993;23;20035;-68
2023/02/03 09:49:06;;;;;;;2.08;1.40;;;10.40;99.90;;;;;;6222041;23;20103;-68
2023/02/03 09:51:38;;;;;;;2.88;1.20;;;10.40;99.90;;;;;;6221332;23;19997;-67
2023/02/03 09:54:14;;;;;;;2.58;1.30;;;10.30;99.90;;;;;;6221833;23;20024;-69
2023/02/03 09:56:45;;;;;;;1.58;1.23;;;10.40;99.90;;;;;;6219568;23;20009;-70
2023/02/03 09:59:11;;;;;;;1.73;1.17;;;10.40;99.90;;;;;;6220039;23;20409;-70
2023/02/03 10:01:56;;;;;;;1.50;1.20;;;10.30;99.90;;;;;;6221440;23;20001;-70
2023/02/03 10:04:44;;;;;;;1.92;1.40;;;10.40;99.90;;;;;;6221529;23;20008;-70
2023/02/03 10:07:14;;;;;;;1.95;1.33;;;10.50;99.90;;;;;;6220767;23;20011;-68
2023/02/03 10:09:57;;;;;;;2.90;1.23;;;10.50;99.90;;;;;;6219111;23;20001;-68
2023/02/03 10:12:35;;;;;;;1.25;1.13;;;10.60;99.90;;;;;;6221659;23;20000;-68
2023/02/03 10:15:31;;;;;;;1.70;1.15;;;10.60;99.90;;;;;;6220451;23;19997;-68
2023/02/03 10:18:04;;;;;;;2.83;1.45;;;10.60;99.90;;;;;;6215999;23;20035;-67
2023/02/03 10:21:05;;;;;;;3.97;1.38;;;10.60;99.90;;;;;;6217510;23;20528;-67
2023/02/03 10:23:37;;;;;;;1.77;1.02;;;10.60;99.90;;;;;;6157446;23;20033;-65
2023/02/03 10:26:08;;;;;;;1.50;1.00;;;10.70;99.90;;;;;;6209603;23;20008;-64
2023/02/03 10:28:41;;;;;;;2.15;1.08;;;10.70;99.90;;;;;;6221356;23;19996;-65
2023/02/03 10:31:29;;;;;;;1.33;1.10;;;10.80;99.90;;;;;;6221294;23;20027;-65
2023/02/03 10:34:08;;;;;;;1.27;0.70;;;10.80;99.90;;;;;;6220198;23;20016;-65
2023/02/03 10:36:47;;;;;;;2.40;1.00;;;10.90;99.90;;;;;;6220898;23;20001;-67
2023/02/03 10:39:22;;;;;;;2.83;0.70;;;11.00;99.90;;;;;;6218853;23;20015;-68
2023/02/03 10:41:48;;;;;;;2.85;0.80;;;11.00;99.90;;;;;;6218375;23;20056;-68
2023/02/03 10:44:14;;;;;;;0.95;0.75;;;11.00;99.90;;;;;;6218610;23;20031;-68
2023/02/03 10:46:42;;;;;;;1.75;0.80;;;11.10;99.90;;;;;;6218793;23;20136;-68
2023/02/03 10:49:10;;;;;;;1.45;0.80;;;11.10;99.90;;;;;;6217315;23;20075;-68
2023/02/03 10:51:50;;;;;;;1.45;0.80;;;11.00;99.90;;;;;;6214923;23;20000;-68
2023/02/03 10:54:32;;;;;;;2.33;0.90;;;11.00;99.90;;;;;;6218370;23;20004;-68
2023/02/03 10:57:05;;;;;;;1.17;0.77;;;11.10;99.90;;;;;;6220132;23;20000;-68
2023/02/03 10:59:36;;;;;;;1.58;0.65;;;11.10;99.90;;;;;;6215774;23;20031;-68
2023/02/03 11:02:19;;;;;;;1.30;0.75;;;11.10;99.90;;;;;;6220291;23;20338;-67
2023/02/03 11:04:45;;;;;;;1.25;0.73;;;11.00;99.90;;;;;;6217315;23;20009;-68
2023/02/03 11:07:24;;;;;;;1.40;0.82;;;11.10;99.90;;;;;;6217119;23;20009;-68
2023/02/03 11:09:50;;;;;;;1.02;0.75;;;11.00;99.90;;;;;;6219596;23;19997;-68
2023/02/03 11:12:18;;;;;;;1.02;0.68;;;11.00;99.90;;;;;;6220042;23;20052;-68
2023/02/03 11:14:49;;;;;;;1.50;0.80;;;11.00;99.90;;;;;;6218715;23;20324;-68
2023/02/03 11:17:21;;;;;;;1.25;0.80;;;11.10;99.90;;;;;;6219146;23;20024;-68
2023/02/03 11:19:49;;;;;;;1.20;0.75;;;11.10;99.90;;;;;;6216118;23;20104;-68
2023/02/03 11:22:31;;;;;;;1.60;1.00;;;11.30;99.90;;;;;;6219248;23;20011;-68
2023/02/03 11:24:58;;;;;;;1.77;0.98;;;11.30;99.90;;;;;;6219938;23;19997;-68
2023/02/03 11:27:27;;;;;;;1.20;0.85;;;11.30;99.90;;;;;;6218050;23;20004;-68
2023/02/03 11:30:17;;;;;;;2.38;0.85;;;11.20;99.90;;;;;;6220457;23;20005;-68
2023/02/03 11:32:45;;;;;;;1.02;0.57;;;11.30;99.90;;;;;;6220632;23;20047;-68
2023/02/03 11:35:21;;;;;;;1.10;0.60;;;11.40;99.90;;;;;;6219785;23;20454;-68
2023/02/03 11:37:49;;;;;;;1.25;0.70;;;11.40;99.90;;;;;;6216978;23;20004;-68
2023/02/03 11:40:16;;;;;;;0.90;0.70;;;11.30;99.90;;;;;;6219019;23;20357;-68
2023/02/03 11:42:59;;;;;;;2.58;0.90;;;11.40;99.90;;;;;;6217414;23;20365;-68
2023/02/03 11:45:40;;;;;;;1.10;0.80;;;11.40;99.90;;;;;;6217987;23;20055;-69
2023/02/03 11:48:23;;;;;;;0.60;0.47;;;11.30;99.90;;;;;;6219513;23;19996;-69
2023/02/03 11:51:10;;;;;;;1.00;0.65;;;11.30;99.90;;;;;;6219088;23;19997;-69
2023/02/03 11:54:05;;;;;;;0.85;0.55;;;11.30;99.90;;;;;;6218813;23;20000;-69
2023/02/03 11:57:04;;;;;;;0.73;0.43;;;11.30;99.90;;;;;;6205712;23;20083;-66
2023/02/03 11:59:29;;;;;;;0.90;0.57;;;11.30;99.90;;;;;;6219630;23;20004;-67
2023/02/03 12:02:13;;;;;;;1.60;0.55;;;11.30;99.90;;;;;;6220497;23;20008;-67
2023/02/03 12:04:47;;;;;;;0.70;0.50;;;11.40;99.90;;;;;;6220037;23;20001;-67
2023/02/03 12:07:39;;;;;;;1.40;0.57;;;11.40;99.90;;;;;;6220138;23;20005;-67
2023/02/03 12:10:13;;;;;;;0.82;0.57;;;11.50;99.90;;;;;;6218563;23;20008;-67
2023/02/03 12:12:50;;;;;;;0.73;0.50;;;11.60;99.90;;;;;;6220020;23;19996;-66
2023/02/03 12:15:38;;;;;;;1.23;0.63;;;11.70;99.90;;;;;;6219963;23;20330;-67
2023/02/03 12:18:18;;;;;;;0.57;0.45;;;11.90;99.90;;;;;;6220252;23;20023;-67
2023/02/03 12:21:12;;;;;;;0.90;0.52;;;11.80;99.90;;;;;;6219458;23;19996;-66
2023/02/03 12:24:12;;;;;;;2.00;0.70;;;11.80;99.90;;;;;;6219878;23;20079;-69
2023/02/03 12:27:08;;;;;;;0.88;0.50;;;11.80;99.90;;;;;;6219716;23;20333;-65
2023/02/03 12:29:39;;;;;;;0.77;0.50;;;11.70;99.90;;;;;;6214874;23;20100;-67
2023/02/03 12:32:22;;;;;;;0.40;0.30;;;11.80;99.90;;;;;;6219904;23;20059;-67
2023/02/03 12:35:10;;;;;;;1.08;0.47;;;11.80;99.90;;;;;;6219978;23;20000;-67
2023/02/03 12:37:38;;;;;;;1.23;0.52;;;11.80;99.90;;;;;;6220031;23;20366;-67
2023/02/03 12:40:17;;;;;;;0.73;0.55;;;11.90;99.90;;;;;;6219821;23;20004;-66
2023/02/03 12:43:22;;;;;;;0.50;0.40;;;11.90;99.90;;;;;;6218174;23;20005;-66
2023/02/03 12:45:59;;;;;;;1.23;0.55;;;11.80;99.90;;;;;;6217977;23;20015;-66
2023/02/03 12:48:45;;;;;;;0.60;0.40;;;11.80;99.90;;;;;;6219437;23;20453;-66
2023/02/03 12:51:15;;;;;;;0.90;0.50;;;11.80;99.90;;;;;;6219818;23;20028;-67
2023/02/03 12:53:49;;;;;;;0.98;0.45;;;11.80;99.90;;;;;;6219741;23;20082;-68
2023/02/03 12:56:23;;;;;;;1.77;0.90;;;11.80;99.90;;;;;;6217801;23;20011;-70
2023/02/03 12:59:01;;;;;;;2.25;0.85;;;11.80;99.90;;;;;;6219862;23;20023;-70
2023/02/03 13:01:41;;;;;;;0.82;0.60;;;11.70;99.90;;;;;;6219788;23;20004;-70
2023/02/03 13:04:23;;;;;;;2.15;0.88;;;11.70;99.90;;;;;;6219401;23;20001;-70
2023/02/03 13:07:02;;;;;;;3.42;1.15;;;11.80;99.90;;;;;;6218385;23;20114;-69